createdAt,value
2022-11-09T00:00:19.203Z,23.33
2022-11-09T00:01:21.466Z,23.33
2022-11-09T00:02:23.572Z,23.33
2022-11-09T00:03:26.205Z,23.33
2022-11-09T00:04:28.510Z,23.32
2022-11-09T00:05:30.925Z,23.33
2022-11-09T00:06:34.224Z,23.33
2022-11-09T00:07:36.667Z,23.32
2022-11-09T00:08:39.672Z,23.31
2022-11-09T00:09:41.801Z,23.31
2022-11-09T00:10:44.715Z,23.31
2022-11-09T00:11:46.815Z,23.31
2022-11-09T00:12:49.017Z,23.30
2022-11-09T00:13:52.029Z,23.30
2022-11-09T00:14:54.191Z,23.30
2022-11-09T00:15:59.287Z,23.29
2022-11-09T00:17:01.474Z,23.30
2022-11-09T00:18:03.940Z,23.30
2022-11-09T00:19:06.652Z,23.30
2022-11-09T00:20:10.457Z,23.29
2022-11-09T00:22:30.684Z,23.41
2022-11-09T00:23:32.931Z,23.30
2022-11-09T00:24:36.505Z,23.29
2022-11-09T00:25:38.899Z,23.29
2022-11-09T00:26:41.214Z,23.29
2022-11-09T00:27:43.837Z,23.28
2022-11-09T00:28:45.975Z,23.28
2022-11-09T00:29:48.529Z,23.28
2022-11-09T00:31:00.877Z,23.28
2022-11-09T00:32:03.817Z,23.27
2022-11-09T00:33:06.312Z,23.28
2022-11-09T00:34:08.409Z,23.27
2022-11-09T00:35:10.497Z,23.27
2022-11-09T00:36:13.859Z,23.26
2022-11-09T00:37:16.721Z,23.27
2022-11-09T00:38:19.470Z,23.26
2022-11-09T00:39:22.675Z,23.25
2022-11-09T00:40:24.937Z,23.25
2022-11-09T00:41:27.522Z,23.27
2022-11-09T00:42:30.766Z,23.24
2022-11-09T00:43:33.076Z,23.24
2022-11-09T00:44:35.568Z,23.24
2022-11-09T00:45:37.628Z,23.24
2022-11-09T00:46:39.839Z,23.23
2022-11-09T00:47:43.068Z,23.23
2022-11-09T00:48:45.548Z,23.23
2022-11-09T00:49:48.245Z,23.24
2022-11-09T00:50:54.920Z,23.23
2022-11-09T00:51:57.200Z,23.23
2022-11-09T00:53:00.353Z,23.23
2022-11-09T00:54:02.520Z,23.24
2022-11-09T00:55:05.657Z,23.24
2022-11-09T00:56:10.424Z,23.23
2022-11-09T00:57:13.584Z,23.23
2022-11-09T00:58:17.627Z,23.22
2022-11-09T00:59:19.921Z,23.22
2022-11-09T01:00:23.284Z,23.21
2022-11-09T01:01:26.342Z,23.21
2022-11-09T01:02:28.631Z,23.21
2022-11-09T01:03:32.352Z,23.21
2022-11-09T01:04:36.236Z,23.20
2022-11-09T01:05:38.428Z,23.21
2022-11-09T01:06:40.683Z,23.21
2022-11-09T01:07:44.783Z,23.21
2022-11-09T01:08:47.370Z,23.21
2022-11-09T01:09:50.332Z,23.21
2022-11-09T01:10:52.639Z,23.21
2022-11-09T01:11:56.685Z,23.20
2022-11-09T01:12:58.877Z,23.20
2022-11-09T01:14:00.900Z,23.19
2022-11-09T01:15:04.637Z,23.20
2022-11-09T01:16:11.788Z,23.20
2022-11-09T01:17:14.049Z,23.20
2022-11-09T01:18:16.840Z,23.18
2022-11-09T01:19:18.904Z,23.19
2022-11-09T01:20:22.182Z,23.18
2022-11-09T01:21:26.388Z,23.09
2022-11-09T01:22:28.661Z,23.09
2022-11-09T01:23:30.795Z,23.18
2022-11-09T01:24:33.644Z,23.17
2022-11-09T01:25:36.341Z,23.18
2022-11-09T01:26:39.398Z,23.18
2022-11-09T01:27:41.503Z,23.18
2022-11-09T01:28:43.599Z,23.17
2022-11-09T01:29:46.719Z,23.18
2022-11-09T01:30:48.979Z,23.17
2022-11-09T01:31:53.056Z,23.17
2022-11-09T01:32:55.402Z,23.17
2022-11-09T01:33:57.485Z,23.17
2022-11-09T01:34:59.670Z,23.17
2022-11-09T01:36:04.620Z,23.17
2022-11-09T01:37:06.893Z,23.17
2022-11-09T01:38:09.200Z,23.18
2022-11-09T01:39:11.306Z,23.17
2022-11-09T01:40:14.532Z,23.17
2022-11-09T01:42:33.348Z,23.27
2022-11-09T01:43:36.702Z,23.16
2022-11-09T01:44:40.759Z,23.16
2022-11-09T01:45:45.228Z,23.15
2022-11-09T01:47:00.292Z,23.16
2022-11-09T01:48:06.787Z,23.16
2022-11-09T01:49:12.859Z,23.16
2022-11-09T01:50:19.211Z,23.16
2022-11-09T01:52:41.606Z,23.25
2022-11-09T01:53:48.358Z,23.14
2022-11-09T01:54:58.845Z,23.14
2022-11-09T01:56:04.384Z,23.12
2022-11-09T01:57:11.865Z,23.11
2022-11-09T01:58:24.837Z,23.10
2022-11-09T01:59:29.905Z,23.10
2022-11-09T02:00:33.384Z,23.09
2022-11-09T02:01:36.532Z,23.09
2022-11-09T02:02:41.743Z,23.08
2022-11-09T02:05:10.173Z,23.17
2022-11-09T02:06:13.996Z,23.08
2022-11-09T02:07:16.483Z,23.06
2022-11-09T02:08:19.993Z,23.05
2022-11-09T02:11:08.849Z,23.15
2022-11-09T02:12:11.420Z,23.05
2022-11-09T02:13:15.560Z,23.03
2022-11-09T02:14:19.764Z,23.02
2022-11-09T02:15:25.817Z,23.01
2022-11-09T02:16:32.279Z,23.02
2022-11-09T02:17:35.927Z,23.02
2022-11-09T02:20:12.342Z,23.10
2022-11-09T02:21:14.618Z,22.99
2022-11-09T02:22:16.737Z,22.98
2022-11-09T02:23:19.338Z,22.98
2022-11-09T02:24:22.360Z,22.98
2022-11-09T02:25:24.913Z,22.98
2022-11-09T02:26:35.903Z,22.98
2022-11-09T02:27:38.161Z,22.99
2022-11-09T02:28:41.277Z,22.98
2022-11-09T02:29:44.354Z,22.98
2022-11-09T02:30:49.137Z,22.97
2022-11-09T02:31:56.822Z,22.98
2022-11-09T02:32:59.135Z,22.98
2022-11-09T02:35:22.698Z,23.11
2022-11-09T02:36:24.978Z,23.01
2022-11-09T02:37:34.938Z,23.01
2022-11-09T02:38:38.153Z,23.02
2022-11-09T02:39:40.896Z,23.03
2022-11-09T02:40:47.226Z,23.04
2022-11-09T02:41:56.881Z,23.05
2022-11-09T02:43:01.966Z,23.04
2022-11-09T02:44:04.428Z,23.03
2022-11-09T02:45:07.922Z,23.04
2022-11-09T02:46:12.559Z,23.03
2022-11-09T02:47:15.560Z,23.02
2022-11-09T02:48:20.081Z,23.01
2022-11-09T02:49:22.790Z,23.03
2022-11-09T02:50:25.245Z,23.03
2022-11-09T02:51:28.000Z,23.04
2022-11-09T02:52:30.334Z,23.05
2022-11-09T02:53:33.012Z,23.04
2022-11-09T02:54:35.798Z,23.05
2022-11-09T02:55:39.274Z,23.05
2022-11-09T02:56:41.670Z,23.05
2022-11-09T02:57:44.392Z,23.06
2022-11-09T02:58:48.332Z,23.06
2022-11-09T02:59:52.164Z,23.07
2022-11-09T03:00:56.818Z,23.07
2022-11-09T03:01:59.811Z,23.08
2022-11-09T03:03:05.064Z,23.08
2022-11-09T03:04:07.466Z,23.09
2022-11-09T03:05:10.357Z,23.09
2022-11-09T03:06:14.419Z,23.09
2022-11-09T03:07:18.210Z,23.10
2022-11-09T03:08:21.636Z,23.10
2022-11-09T03:09:24.990Z,23.10
2022-11-09T03:10:27.790Z,23.10
2022-11-09T03:11:30.421Z,23.10
2022-11-09T03:12:34.485Z,23.09
2022-11-09T03:13:42.289Z,23.10
2022-11-09T03:14:44.646Z,23.10
2022-11-09T03:15:46.841Z,23.09
2022-11-09T03:16:50.961Z,23.09
2022-11-09T03:17:54.833Z,23.09
2022-11-09T03:18:57.385Z,23.09
2022-11-09T03:19:59.670Z,23.09
2022-11-09T03:21:03.562Z,23.09
2022-11-09T03:22:05.813Z,23.09
2022-11-09T03:23:07.835Z,23.08
2022-11-09T03:24:10.357Z,23.08
2022-11-09T03:25:13.272Z,23.07
2022-11-09T03:26:16.228Z,23.07
2022-11-09T03:27:18.786Z,23.09
2022-11-09T03:28:22.235Z,23.08
2022-11-09T03:29:25.944Z,23.07
2022-11-09T03:30:31.151Z,23.07
2022-11-09T03:31:33.512Z,23.06
2022-11-09T03:32:37.639Z,23.07
2022-11-09T03:33:41.388Z,23.07
2022-11-09T03:34:44.044Z,23.06
2022-11-09T03:35:47.295Z,23.07
2022-11-09T03:36:51.354Z,23.07
2022-11-09T03:37:53.725Z,23.06
2022-11-09T03:38:57.109Z,23.06
2022-11-09T03:39:59.384Z,23.06
2022-11-09T03:41:02.533Z,23.06
2022-11-09T03:42:05.627Z,23.06
2022-11-09T03:43:07.825Z,23.06
2022-11-09T03:44:10.229Z,23.07
2022-11-09T03:45:13.118Z,23.06
2022-11-09T03:46:17.214Z,23.07
2022-11-09T03:47:20.311Z,23.06
2022-11-09T03:48:23.149Z,23.06
2022-11-09T03:49:25.824Z,23.07
2022-11-09T03:50:29.271Z,23.06
2022-11-09T03:51:32.526Z,23.05
2022-11-09T03:52:34.964Z,23.05
2022-11-09T03:53:37.195Z,23.05
2022-11-09T03:54:39.298Z,23.04
2022-11-09T03:55:41.412Z,23.05
2022-11-09T03:56:43.638Z,23.04
2022-11-09T03:57:45.629Z,23.05
2022-11-09T03:58:47.725Z,23.06
2022-11-09T03:59:49.837Z,23.05
2022-11-09T04:00:52.031Z,23.05
2022-11-09T04:01:54.080Z,23.06
2022-11-09T04:02:56.398Z,23.06
2022-11-09T04:03:58.992Z,23.05
2022-11-09T04:05:03.184Z,23.06
2022-11-09T04:06:06.118Z,23.00
2022-11-09T04:07:10.141Z,23.06
2022-11-09T04:08:12.406Z,23.06
2022-11-09T04:09:14.618Z,23.05
2022-11-09T04:10:17.351Z,23.05
2022-11-09T04:11:19.342Z,23.06
2022-11-09T04:12:21.551Z,23.05
2022-11-09T04:13:24.229Z,23.06
2022-11-09T04:14:26.739Z,23.06
2022-11-09T04:15:29.028Z,23.05
2022-11-09T04:16:31.169Z,23.05
2022-11-09T04:17:33.273Z,23.06
2022-11-09T04:18:35.467Z,23.05
2022-11-09T04:19:37.641Z,23.05
2022-11-09T04:20:40.815Z,23.04
2022-11-09T04:21:43.046Z,23.05
2022-11-09T04:22:45.051Z,23.04
2022-11-09T04:23:48.377Z,23.05
2022-11-09T04:24:51.053Z,23.05
2022-11-09T04:25:53.142Z,23.05
2022-11-09T04:26:55.338Z,23.06
2022-11-09T04:27:57.749Z,23.05
2022-11-09T04:29:00.389Z,23.05
2022-11-09T04:30:02.588Z,23.05
2022-11-09T04:31:05.967Z,23.05
2022-11-09T04:32:09.124Z,23.04
2022-11-09T04:33:11.256Z,23.04
2022-11-09T04:34:13.469Z,23.04
2022-11-09T04:35:15.803Z,23.04
2022-11-09T04:36:18.107Z,23.03
2022-11-09T04:37:21.210Z,23.03
2022-11-09T04:38:24.351Z,22.99
2022-11-09T04:39:26.975Z,23.04
2022-11-09T04:40:30.980Z,23.04
2022-11-09T04:41:33.174Z,23.03
2022-11-09T04:42:35.357Z,23.03
2022-11-09T04:43:37.446Z,23.04
2022-11-09T04:44:39.426Z,23.03
2022-11-09T04:45:41.908Z,23.03
2022-11-09T04:46:45.017Z,23.04
2022-11-09T04:47:47.463Z,23.04
2022-11-09T04:48:49.676Z,23.03
2022-11-09T04:49:53.003Z,23.04
2022-11-09T04:52:12.145Z,23.13
2022-11-09T04:53:14.771Z,23.03
2022-11-09T04:54:17.022Z,23.02
2022-11-09T04:55:19.129Z,23.03
2022-11-09T04:56:21.311Z,23.03
2022-11-09T04:57:23.622Z,23.03
2022-11-09T04:58:25.836Z,23.04
2022-11-09T04:59:28.041Z,23.04
2022-11-09T05:00:30.211Z,23.05
2022-11-09T05:01:32.234Z,23.05
2022-11-09T05:02:34.319Z,23.06
2022-11-09T05:03:37.769Z,23.05
2022-11-09T05:04:40.011Z,23.06
2022-11-09T05:05:48.022Z,23.05
2022-11-09T05:06:48.035Z,23.06
2022-11-09T05:07:51.144Z,23.05
2022-11-09T05:08:54.031Z,23.05
2022-11-09T05:09:56.193Z,23.05
2022-11-09T05:10:58.616Z,23.05
2022-11-09T05:12:02.112Z,23.04
2022-11-09T05:13:05.965Z,23.04
2022-11-09T05:14:08.153Z,23.04
2022-11-09T05:15:10.793Z,23.04
2022-11-09T05:16:13.915Z,23.03
2022-11-09T05:17:15.949Z,23.06
2022-11-09T05:18:17.878Z,23.06
2022-11-09T05:19:19.975Z,23.06
2022-11-09T05:20:22.809Z,23.06
2022-11-09T05:21:24.890Z,23.06
2022-11-09T05:22:27.773Z,23.05
2022-11-09T05:23:29.934Z,23.05
2022-11-09T05:24:32.906Z,23.04
2022-11-09T05:25:35.048Z,23.05
2022-11-09T05:26:38.854Z,23.04
2022-11-09T05:27:41.522Z,23.04
2022-11-09T05:28:43.628Z,23.04
2022-11-09T05:29:45.828Z,23.04
2022-11-09T05:30:48.718Z,23.05
2022-11-09T05:31:52.553Z,23.03
2022-11-09T05:32:54.943Z,23.04
2022-11-09T05:33:58.312Z,23.04
2022-11-09T05:35:00.448Z,23.03
2022-11-09T05:36:02.551Z,23.04
2022-11-09T05:37:04.800Z,23.05
2022-11-09T05:38:07.088Z,23.04
2022-11-09T05:39:09.419Z,23.05
2022-11-09T05:40:12.439Z,23.06
2022-11-09T05:41:14.534Z,23.05
2022-11-09T05:42:17.160Z,23.06
2022-11-09T05:43:20.649Z,23.05
2022-11-09T05:44:23.058Z,23.06
2022-11-09T05:46:29.234Z,23.05
2022-11-09T05:47:35.227Z,23.06
2022-11-09T05:48:37.270Z,23.05
2022-11-09T05:49:39.475Z,23.04
2022-11-09T05:50:42.074Z,23.05
2022-11-09T05:51:47.172Z,23.04
2022-11-09T05:52:49.569Z,23.05
2022-11-09T05:53:51.885Z,23.05
2022-11-09T05:54:53.714Z,23.04
2022-11-09T05:55:55.558Z,23.04
2022-11-09T05:56:57.676Z,23.06
2022-11-09T05:57:59.470Z,23.06
2022-11-09T05:59:01.259Z,23.05
2022-11-09T06:00:08.537Z,23.06
2022-11-09T06:01:12.715Z,23.03
2022-11-09T06:02:14.830Z,23.07
2022-11-09T06:03:17.179Z,23.06
2022-11-09T06:04:19.682Z,23.06
2022-11-09T06:05:21.702Z,23.06
2022-11-09T06:06:23.803Z,23.06
2022-11-09T06:07:26.133Z,23.06
2022-11-09T06:08:28.386Z,23.06
2022-11-09T06:09:30.422Z,23.06
2022-11-09T06:10:32.650Z,23.06
2022-11-09T06:11:34.774Z,23.07
2022-11-09T06:12:36.863Z,23.08
2022-11-09T06:13:39.074Z,23.09
2022-11-09T06:14:41.176Z,23.09
2022-11-09T06:15:43.542Z,23.09
2022-11-09T06:16:45.740Z,23.09
2022-11-09T06:17:56.139Z,23.09
2022-11-09T06:19:01.368Z,23.09
2022-11-09T06:20:04.671Z,23.10
2022-11-09T06:21:06.910Z,23.09
2022-11-09T06:22:08.940Z,23.10
2022-11-09T06:23:10.917Z,23.09
2022-11-09T06:24:13.152Z,23.09
2022-11-09T06:25:15.458Z,23.10
2022-11-09T06:26:17.831Z,23.09
2022-11-09T06:27:19.942Z,23.10
2022-11-09T06:28:22.043Z,23.10
2022-11-09T06:29:24.168Z,23.12
2022-11-09T06:30:26.351Z,23.11
2022-11-09T06:31:28.374Z,23.11
2022-11-09T06:32:30.454Z,23.10
2022-11-09T06:33:33.545Z,23.11
2022-11-09T06:34:35.722Z,23.11
2022-11-09T06:35:37.713Z,23.11
2022-11-09T06:36:39.753Z,23.11
2022-11-09T06:37:41.921Z,23.12
2022-11-09T06:38:43.922Z,23.12
2022-11-09T06:39:47.086Z,23.12
2022-11-09T06:40:57.548Z,23.12
2022-11-09T06:42:00.091Z,23.13
2022-11-09T06:43:02.609Z,23.13
2022-11-09T06:44:05.820Z,23.13
2022-11-09T06:45:09.170Z,23.13
2022-11-09T06:46:11.934Z,23.07
2022-11-09T06:47:14.137Z,23.07
2022-11-09T06:48:17.348Z,23.13
2022-11-09T06:49:20.067Z,23.12
2022-11-09T06:50:22.173Z,23.13
2022-11-09T06:51:24.562Z,23.12
2022-11-09T06:52:27.710Z,23.12
2022-11-09T06:53:30.754Z,23.13
2022-11-09T06:54:32.915Z,23.12
2022-11-09T06:55:35.026Z,23.12
2022-11-09T06:56:37.231Z,23.13
2022-11-09T06:57:39.231Z,23.13
2022-11-09T06:58:41.318Z,23.12
2022-11-09T06:59:43.840Z,23.11
2022-11-09T07:00:49.494Z,23.10
2022-11-09T07:01:52.087Z,23.11
2022-11-09T07:02:54.814Z,23.11
2022-11-09T07:03:56.802Z,23.10
2022-11-09T07:04:59.300Z,23.10
2022-11-09T07:06:04.101Z,23.10
2022-11-09T07:07:07.386Z,23.10
2022-11-09T07:08:11.027Z,23.09
2022-11-09T07:09:14.111Z,23.10
2022-11-09T07:10:16.888Z,23.10
2022-11-09T07:11:18.916Z,23.10
2022-11-09T07:12:20.989Z,23.10
2022-11-09T07:13:24.055Z,23.11
2022-11-09T07:14:26.260Z,23.11
2022-11-09T07:15:28.377Z,23.10
2022-11-09T07:16:30.674Z,23.10
2022-11-09T07:17:33.187Z,23.10
2022-11-09T07:18:35.301Z,23.10
2022-11-09T07:19:37.417Z,23.10
2022-11-09T07:20:39.532Z,23.11
2022-11-09T07:21:42.100Z,23.11
2022-11-09T07:22:45.227Z,23.11
2022-11-09T07:23:48.110Z,23.11
2022-11-09T07:24:50.390Z,23.11
2022-11-09T07:25:53.633Z,23.12
2022-11-09T07:26:55.840Z,23.13
2022-11-09T07:28:04.615Z,23.14
2022-11-09T07:29:06.873Z,23.12
2022-11-09T07:30:12.420Z,23.13
2022-11-09T07:31:15.580Z,23.14
2022-11-09T07:32:18.190Z,23.13
2022-11-09T07:33:20.469Z,23.14
2022-11-09T07:34:23.422Z,23.14
2022-11-09T07:35:26.433Z,23.13
2022-11-09T07:36:29.561Z,23.12
2022-11-09T07:37:31.776Z,23.13
2022-11-09T07:38:33.825Z,23.13
2022-11-09T07:39:36.383Z,23.12
2022-11-09T07:40:38.576Z,23.13
2022-11-09T07:41:40.659Z,23.13
2022-11-09T07:42:42.767Z,23.12
2022-11-09T07:43:45.047Z,23.13
2022-11-09T07:44:48.481Z,23.14
2022-11-09T07:45:51.618Z,23.14
2022-11-09T07:46:53.878Z,23.14
2022-11-09T07:47:57.204Z,23.14
2022-11-09T07:48:59.791Z,23.14
2022-11-09T07:50:02.766Z,23.13
2022-11-09T07:51:05.762Z,23.14
2022-11-09T07:52:08.228Z,23.14
2022-11-09T07:53:12.745Z,23.14
2022-11-09T07:54:16.463Z,23.14
2022-11-09T07:55:18.770Z,23.14
2022-11-09T07:56:20.887Z,23.14
2022-11-09T07:57:23.496Z,23.13
2022-11-09T07:58:25.937Z,23.14
2022-11-09T07:59:28.979Z,23.13
2022-11-09T08:00:32.653Z,23.12
2022-11-09T08:01:35.491Z,23.13
2022-11-09T08:02:38.844Z,23.13
2022-11-09T08:03:41.561Z,23.12
2022-11-09T08:04:43.571Z,23.12
2022-11-09T08:05:46.728Z,23.13
2022-11-09T08:06:51.407Z,23.12
2022-11-09T08:09:07.533Z,23.24
2022-11-09T08:10:11.555Z,23.13
2022-11-09T08:11:14.827Z,23.12
2022-11-09T08:12:17.240Z,23.12
2022-11-09T08:13:19.573Z,23.12
2022-11-09T08:14:22.131Z,23.12
2022-11-09T08:15:25.113Z,23.12
2022-11-09T08:16:29.445Z,23.13
2022-11-09T08:17:32.070Z,23.13
2022-11-09T08:18:34.179Z,23.14
2022-11-09T08:19:36.271Z,23.14
2022-11-09T08:20:38.810Z,23.14
2022-11-09T08:21:40.787Z,23.14
2022-11-09T08:22:43.613Z,23.15
2022-11-09T08:23:45.670Z,23.14
2022-11-09T08:24:48.100Z,23.15
2022-11-09T08:25:50.507Z,23.15
2022-11-09T08:26:52.838Z,23.15
2022-11-09T08:27:57.286Z,23.15
2022-11-09T08:28:59.389Z,23.16
2022-11-09T08:30:01.472Z,23.16
2022-11-09T08:31:06.289Z,23.16
2022-11-09T08:32:08.558Z,23.15
2022-11-09T08:33:11.063Z,23.16
2022-11-09T08:34:13.174Z,23.16
2022-11-09T08:36:29.161Z,23.27
2022-11-09T08:37:33.540Z,23.17
2022-11-09T08:38:35.750Z,23.16
2022-11-09T08:39:37.863Z,23.17
2022-11-09T08:40:39.989Z,23.16
2022-11-09T08:41:42.678Z,23.17
2022-11-09T08:42:44.925Z,23.16
2022-11-09T08:43:47.017Z,23.17
2022-11-09T08:44:50.980Z,23.17
2022-11-09T08:45:53.543Z,23.17
2022-11-09T08:46:55.827Z,23.17
2022-11-09T08:47:58.374Z,23.17
2022-11-09T08:49:00.577Z,23.10
2022-11-09T08:50:03.683Z,23.10
2022-11-09T08:51:06.353Z,23.16
2022-11-09T08:52:08.567Z,23.15
2022-11-09T08:53:10.658Z,23.15
2022-11-09T08:54:13.044Z,23.15
2022-11-09T08:55:15.901Z,23.15
2022-11-09T08:56:18.443Z,23.15
2022-11-09T08:57:20.707Z,23.15
2022-11-09T08:58:24.262Z,23.15
2022-11-09T08:59:27.440Z,23.15
2022-11-09T09:00:30.938Z,23.15
2022-11-09T09:01:33.109Z,23.14
2022-11-09T09:02:35.313Z,23.14
2022-11-09T09:03:38.827Z,23.13
2022-11-09T09:04:43.683Z,23.14
2022-11-09T09:05:45.797Z,23.14
2022-11-09T09:06:48.162Z,23.13
2022-11-09T09:07:51.951Z,23.13
2022-11-09T09:08:54.131Z,23.14
2022-11-09T09:09:56.231Z,23.14
2022-11-09T09:11:06.978Z,23.15
2022-11-09T09:12:09.634Z,23.15
2022-11-09T09:13:11.731Z,23.15
2022-11-09T09:14:15.347Z,23.16
2022-11-09T09:15:17.795Z,23.14
2022-11-09T09:16:20.088Z,23.16
2022-11-09T09:17:22.285Z,23.15
2022-11-09T09:18:24.548Z,23.15
2022-11-09T09:19:26.766Z,23.15
2022-11-09T09:20:28.873Z,23.14
2022-11-09T09:21:31.455Z,23.14
2022-11-09T09:22:34.574Z,23.13
2022-11-09T09:23:37.954Z,23.13
2022-11-09T09:24:40.773Z,23.13
2022-11-09T09:25:42.764Z,23.12
2022-11-09T09:26:46.371Z,23.12
2022-11-09T09:27:48.726Z,23.11
2022-11-09T09:28:50.932Z,23.11
2022-11-09T09:29:53.048Z,23.11
2022-11-09T09:31:01.485Z,23.11
2022-11-09T09:32:04.432Z,23.10
2022-11-09T09:33:06.507Z,23.09
2022-11-09T09:34:08.825Z,23.08
2022-11-09T09:35:11.152Z,23.08
2022-11-09T09:36:16.404Z,23.09
2022-11-09T09:37:19.167Z,23.08
2022-11-09T09:38:22.261Z,23.08
2022-11-09T09:39:24.968Z,23.07
2022-11-09T09:40:38.187Z,23.07
2022-11-09T09:43:03.123Z,23.16
2022-11-09T09:44:15.298Z,23.06
2022-11-09T09:46:42.937Z,23.14
2022-11-09T09:49:11.762Z,23.13
2022-11-09T09:50:17.716Z,23.04
2022-11-09T09:51:38.511Z,23.04
2022-11-09T09:52:50.705Z,23.04
2022-11-09T09:53:51.296Z,23.04
2022-11-09T09:55:03.207Z,23.03
2022-11-09T09:56:36.259Z,23.04
2022-11-09T09:57:41.952Z,23.04
2022-11-09T09:58:45.633Z,23.04
2022-11-09T10:00:01.764Z,23.03
2022-11-09T10:01:22.868Z,23.03
2022-11-09T10:02:38.242Z,23.02
2022-11-09T10:03:44.354Z,23.01
2022-11-09T10:04:47.075Z,23.01
2022-11-09T10:07:38.773Z,23.10
2022-11-09T10:08:47.626Z,23.00
2022-11-09T14:17:20.215Z,20.10
2022-11-09T14:18:59.823Z,20.02
2022-11-09T14:20:41.290Z,20.11
2022-11-09T14:22:01.982Z,20.26
2022-11-09T14:23:25.372Z,20.42
2022-11-09T14:24:46.637Z,20.56
2022-11-09T14:26:09.223Z,20.70
2022-11-09T14:27:30.499Z,20.85
2022-11-09T14:28:51.408Z,20.98
2022-11-09T14:30:15.651Z,21.11
2022-11-09T14:31:44.960Z,21.24
2022-11-09T14:33:02.434Z,21.37
2022-11-09T14:34:23.376Z,21.47
2022-11-09T14:35:44.341Z,21.57
2022-11-09T14:37:06.036Z,21.69
2022-11-09T14:38:35.503Z,21.78
2022-11-09T14:39:57.121Z,21.88
2022-11-09T14:41:23.030Z,21.96
2022-11-09T14:44:17.315Z,22.24
2022-11-09T14:45:53.315Z,22.19
2022-11-09T14:47:15.935Z,22.25
2022-11-09T14:48:40.838Z,22.32
2022-11-09T14:50:00.558Z,22.38
2022-11-09T14:51:21.476Z,22.42
2022-11-09T14:52:42.074Z,22.48
2022-11-09T14:54:08.677Z,22.52
2022-11-09T14:55:29.935Z,22.56
2022-11-09T14:56:51.514Z,22.60
2022-11-09T14:58:12.543Z,22.64
2022-11-09T14:59:34.951Z,22.67
2022-11-09T15:01:16.870Z,22.70
2022-11-09T15:02:37.444Z,22.72
2022-11-09T15:04:10.887Z,22.75
2022-11-09T15:05:37.347Z,22.76
2022-11-09T15:08:19.083Z,22.91
2022-11-09T15:09:44.207Z,22.81
2022-11-09T15:11:05.230Z,22.83
2022-11-09T15:12:25.617Z,22.86
2022-11-09T15:13:46.194Z,22.87
2022-11-09T15:15:12.312Z,22.89
2022-11-09T15:16:33.290Z,22.90
2022-11-09T15:17:55.430Z,22.91
2022-11-09T15:19:30.960Z,22.92
2022-11-09T15:24:14.084Z,22.93
2022-11-09T15:26:56.949Z,22.91
2022-11-09T15:28:26.518Z,22.90
2022-11-09T15:29:46.813Z,22.90
2022-11-09T15:31:13.877Z,22.90
2022-11-09T15:32:36.793Z,22.91
2022-11-09T15:33:59.923Z,22.89
2022-11-09T15:35:20.656Z,22.88
2022-11-09T15:36:45.065Z,22.88
2022-11-09T15:38:04.279Z,22.88
2022-11-09T15:39:25.064Z,22.87
2022-11-09T15:40:46.780Z,22.87
2022-11-09T15:43:22.007Z,22.97
2022-11-09T15:44:45.062Z,22.86
2022-11-09T15:46:06.434Z,22.84
2022-11-09T15:47:37.710Z,22.85
2022-11-09T15:50:17.847Z,22.95
2022-11-09T15:51:38.980Z,22.85
2022-11-09T15:53:00.886Z,22.84
2022-11-09T15:54:22.673Z,22.84
2022-11-09T15:55:44.363Z,22.85
2022-11-09T15:57:05.385Z,22.84
2022-11-09T15:58:26.073Z,22.84
2022-11-09T15:59:47.824Z,22.84
2022-11-09T16:01:08.703Z,22.84
2022-11-09T16:02:29.806Z,22.84
2022-11-09T16:03:50.542Z,22.83
2022-11-09T16:05:11.791Z,22.84
2022-11-09T16:06:32.666Z,22.84
2022-11-09T16:07:55.053Z,22.84
2022-11-09T16:09:15.582Z,22.84
2022-11-09T16:10:37.671Z,22.83
2022-11-09T16:11:58.503Z,22.84
2022-11-09T16:13:19.180Z,22.83
2022-11-09T16:14:40.013Z,22.83
2022-11-09T16:16:03.067Z,22.84
2022-11-09T16:17:23.705Z,22.83
2022-11-09T16:18:44.464Z,22.83
2022-11-09T16:20:07.089Z,22.84
2022-11-09T16:21:28.829Z,22.84
2022-11-09T16:22:50.061Z,22.86
2022-11-09T16:24:10.847Z,22.86
2022-11-09T16:25:32.742Z,22.85
2022-11-09T16:26:53.789Z,22.84
2022-11-09T16:28:14.626Z,22.85
2022-11-09T16:29:36.052Z,22.85
2022-11-09T16:30:56.785Z,22.84
2022-11-09T16:32:18.674Z,22.85
2022-11-09T16:33:40.475Z,22.85
2022-11-09T16:35:23.839Z,22.86
2022-11-09T16:36:24.198Z,22.85
2022-11-09T16:37:44.605Z,22.86
2022-11-09T16:39:07.748Z,22.85
2022-11-09T16:40:28.570Z,22.85
2022-11-09T16:41:50.742Z,22.84
2022-11-09T16:43:12.295Z,22.84
2022-11-09T16:44:35.850Z,22.83
2022-11-09T16:45:57.007Z,22.83
2022-11-09T16:47:18.724Z,22.83
2022-11-09T16:48:41.678Z,22.83
2022-11-09T16:50:03.529Z,22.83
2022-11-09T16:51:24.177Z,22.83
2022-11-09T16:52:45.880Z,22.84
2022-11-09T16:54:07.835Z,22.83
2022-11-09T16:55:29.749Z,22.83
2022-11-09T16:56:51.788Z,22.84
2022-11-09T16:58:15.043Z,22.83
2022-11-09T16:59:37.363Z,22.81
2022-11-09T17:01:17.738Z,22.82
2022-11-09T17:02:26.234Z,22.83
2022-11-09T17:03:47.395Z,22.82
2022-11-09T17:05:09.153Z,22.83
2022-11-09T17:07:46.768Z,22.91
2022-11-09T17:09:07.176Z,22.83
2022-11-09T17:10:28.329Z,22.82
2022-11-09T17:11:49.072Z,22.82
2022-11-09T17:13:11.568Z,22.83
2022-11-09T17:14:33.108Z,22.83
2022-11-09T17:15:54.571Z,22.83
2022-11-09T17:17:21.199Z,22.83
2022-11-09T17:18:39.643Z,22.84
2022-11-09T17:20:02.494Z,22.82
2022-11-09T17:21:26.502Z,22.84
2022-11-09T17:22:49.653Z,22.83
2022-11-09T17:24:11.422Z,22.83
2022-11-09T17:25:32.606Z,22.84
2022-11-09T17:26:53.589Z,22.84
2022-11-09T17:28:14.400Z,22.83
2022-11-09T17:29:35.260Z,22.83
2022-11-09T17:30:55.673Z,22.85
2022-11-09T17:32:17.127Z,22.85
2022-11-09T17:33:38.618Z,22.85
2022-11-09T17:35:00.451Z,22.87
2022-11-09T17:36:35.413Z,22.87
2022-11-09T17:37:44.136Z,22.87
2022-11-09T17:39:06.319Z,22.87
2022-11-09T17:40:27.123Z,22.87
2022-11-09T17:41:47.715Z,22.88
2022-11-09T17:43:08.442Z,22.87
2022-11-09T17:44:29.588Z,22.88
2022-11-09T17:45:50.212Z,22.87
2022-11-09T17:47:12.685Z,22.86
2022-11-09T17:48:34.087Z,22.85
2022-11-09T17:49:54.796Z,22.86
2022-11-09T17:51:17.522Z,22.86
2022-11-09T17:52:38.019Z,22.86
2022-11-09T17:53:59.054Z,22.84
2022-11-09T17:55:21.083Z,22.85
2022-11-09T17:56:43.288Z,22.85
2022-11-09T17:58:04.846Z,22.85
2022-11-09T17:59:26.275Z,22.85
2022-11-09T18:00:47.571Z,22.84
2022-11-09T18:02:10.154Z,22.84
2022-11-09T18:03:33.329Z,22.84
2022-11-09T18:04:55.124Z,22.84
2022-11-09T18:07:29.929Z,22.94
2022-11-09T18:09:19.397Z,22.84
2022-11-09T18:10:16.354Z,22.84
2022-11-09T18:11:37.719Z,22.86
2022-11-09T18:12:59.690Z,22.86
2022-11-09T18:14:20.355Z,22.87
2022-11-09T18:15:41.365Z,22.86
2022-11-09T18:17:02.989Z,22.87
2022-11-09T18:18:24.144Z,22.87
2022-11-09T18:19:44.772Z,22.87
2022-11-09T18:22:23.268Z,22.98
2022-11-09T18:23:45.120Z,22.88
2022-11-09T18:25:06.449Z,22.88
2022-11-09T18:26:27.179Z,22.88
2022-11-09T18:27:48.618Z,22.89
2022-11-09T18:29:09.194Z,22.89
2022-11-09T18:30:29.950Z,22.89
2022-11-09T18:31:51.845Z,22.89
2022-11-09T21:25:52.814Z,19.93
2022-11-09T21:27:13.311Z,20.04
2022-11-09T21:28:35.352Z,20.15
2022-11-09T21:29:56.318Z,20.28
2022-11-09T21:31:17.122Z,20.43
2022-11-09T21:32:39.091Z,20.56
2022-11-09T21:34:00.569Z,20.71
2022-11-09T21:35:22.048Z,20.85
2022-11-09T21:36:43.163Z,20.97
2022-11-09T21:38:04.211Z,21.10
2022-11-09T21:39:25.256Z,21.20
2022-11-09T21:40:47.112Z,21.31
2022-11-09T21:42:07.888Z,21.41
2022-11-09T21:43:29.727Z,21.51
2022-11-09T21:44:50.451Z,21.58
2022-11-09T21:46:12.743Z,21.68
2022-11-09T21:47:33.705Z,21.75
2022-11-09T21:48:54.170Z,21.82
2022-11-09T21:50:16.277Z,21.89
2022-11-09T21:51:37.217Z,21.96
2022-11-09T21:52:57.968Z,22.02
2022-11-09T21:54:19.648Z,22.07
2022-11-09T21:55:40.533Z,22.12
2022-11-09T21:57:01.666Z,22.16
2022-11-09T21:58:22.948Z,22.20
2022-11-09T21:59:44.888Z,22.24
2022-11-09T22:01:06.644Z,22.28
2022-11-09T22:02:27.329Z,22.32
2022-11-09T22:03:49.422Z,22.35
2022-11-09T22:05:11.358Z,22.12
2022-11-09T22:06:35.128Z,22.39
2022-11-09T22:07:55.764Z,22.42
2022-11-09T22:09:17.055Z,22.44
2022-11-09T22:10:37.959Z,22.46
2022-11-09T22:11:58.776Z,22.46
2022-11-09T22:13:20.168Z,22.48
2022-11-09T22:14:41.827Z,22.48
2022-11-09T22:16:03.324Z,22.50
2022-11-09T22:17:24.076Z,22.50